createdAt,value
2023-05-24T00:00:33.727Z,73.13
2023-05-24T00:01:56.951Z,72.55
2023-05-24T00:03:21.608Z,73.32
2023-05-24T00:04:45.132Z,73.94
2023-05-24T00:06:08.296Z,75.75
2023-05-24T00:07:30.169Z,74.77
2023-05-24T00:08:53.076Z,75.65
2023-05-24T00:10:15.204Z,76.31
2023-05-24T00:11:38.060Z,75.99
2023-05-24T00:13:01.268Z,76.20
2023-05-24T00:14:24.060Z,75.52
2023-05-24T00:15:46.952Z,75.44
2023-05-24T00:17:08.816Z,75.47
2023-05-24T00:18:32.191Z,75.09
2023-05-24T00:19:54.172Z,74.25
2023-05-24T00:21:17.335Z,73.75
2023-05-24T00:22:40.656Z,73.11
2023-05-24T00:24:03.010Z,73.87
2023-05-24T00:25:25.903Z,73.70
2023-05-24T00:26:49.522Z,73.76
2023-05-24T00:28:13.664Z,74.05
2023-05-24T00:29:35.657Z,74.53
2023-05-24T00:30:58.481Z,75.08
2023-05-24T00:32:22.916Z,74.92
2023-05-24T00:33:45.767Z,75.47
2023-05-24T00:35:09.308Z,74.96
2023-05-24T00:36:33.043Z,75.30
2023-05-24T00:37:54.960Z,74.56
2023-05-24T00:39:17.806Z,74.40
2023-05-24T00:40:40.752Z,73.61
2023-05-24T00:42:02.806Z,74.24
2023-05-24T00:43:27.016Z,74.53
2023-05-24T00:44:49.805Z,74.00
2023-05-24T00:46:16.250Z,74.39
2023-05-24T00:47:39.306Z,74.26
2023-05-24T00:49:01.923Z,74.45
2023-05-24T00:50:25.012Z,74.53
2023-05-24T00:51:47.466Z,74.13
2023-05-24T00:53:10.603Z,74.72
2023-05-24T00:54:33.449Z,74.52
2023-05-24T00:55:55.709Z,74.55
2023-05-24T00:57:19.041Z,74.41
2023-05-24T00:58:43.020Z,73.70
2023-05-24T01:00:08.010Z,74.33
2023-05-24T01:01:31.652Z,74.33
2023-05-24T01:02:55.230Z,73.67
2023-05-24T01:04:20.373Z,73.16
2023-05-24T01:05:42.317Z,73.03
2023-05-24T01:07:14.266Z,72.61
2023-05-24T01:09:02.561Z,73.18
2023-05-24T01:10:35.903Z,73.41
2023-05-24T01:12:15.512Z,74.00
2023-05-24T01:13:48.634Z,74.26
2023-05-24T01:15:20.624Z,74.18
2023-05-24T01:16:51.748Z,74.60
2023-05-24T01:18:17.173Z,73.88
2023-05-24T01:19:59.979Z,74.12
2023-05-24T01:21:38.856Z,73.55
2023-05-24T01:23:07.506Z,73.91
2023-05-24T01:24:33.776Z,74.17
2023-05-24T01:26:19.706Z,74.76
2023-05-24T01:27:44.201Z,75.06
2023-05-24T01:29:08.340Z,74.27
2023-05-24T01:30:30.780Z,74.92
2023-05-24T01:31:53.779Z,74.28
2023-05-24T01:33:16.192Z,74.83
2023-05-24T01:34:39.029Z,74.39
2023-05-24T01:36:01.998Z,74.80
2023-05-24T01:37:23.850Z,73.99
2023-05-24T01:38:47.366Z,74.34
2023-05-24T01:40:10.999Z,74.74
2023-05-24T01:41:40.010Z,73.99
2023-05-24T01:43:13.268Z,73.49
2023-05-24T01:44:39.905Z,75.07
2023-05-24T01:46:12.759Z,74.95
2023-05-24T01:47:45.441Z,75.31
2023-05-24T01:49:15.899Z,75.29
2023-05-24T01:50:46.327Z,75.56
2023-05-24T01:52:12.566Z,75.05
2023-05-24T01:53:40.498Z,76.04
2023-05-24T01:55:05.259Z,76.37
2023-05-24T01:56:29.285Z,76.50
2023-05-24T01:57:53.132Z,75.76
2023-05-24T01:59:17.707Z,75.67
2023-05-24T02:00:42.120Z,75.27
2023-05-24T02:02:06.307Z,74.76
2023-05-24T02:03:29.212Z,74.49
2023-05-24T02:04:52.431Z,74.75
2023-05-24T02:06:14.512Z,74.41
2023-05-24T02:07:37.355Z,74.27
2023-05-24T02:08:59.239Z,75.47
2023-05-24T02:10:22.015Z,75.65
2023-05-24T02:11:43.916Z,75.30
2023-05-24T02:13:06.983Z,75.31
2023-05-24T02:14:31.620Z,75.20
2023-05-24T02:15:54.873Z,75.00
2023-05-24T02:17:17.925Z,75.28
2023-05-24T02:18:40.706Z,74.65
2023-05-24T02:20:04.165Z,74.85
2023-05-24T02:21:28.827Z,74.88
2023-05-24T02:22:52.161Z,74.60
2023-05-24T02:24:14.972Z,74.82
2023-05-24T02:25:37.841Z,75.38
2023-05-24T02:27:01.169Z,75.38
2023-05-24T02:28:23.066Z,74.69
2023-05-24T02:29:47.635Z,75.02
2023-05-24T02:31:10.557Z,74.82
2023-05-24T02:32:33.008Z,74.40
2023-05-24T02:33:55.950Z,73.61
2023-05-24T02:35:17.951Z,76.47
2023-05-24T02:36:40.817Z,76.47
2023-05-24T02:38:03.756Z,75.67
2023-05-24T02:39:26.709Z,76.36
2023-05-24T02:40:48.630Z,75.52
2023-05-24T02:42:11.483Z,75.10
2023-05-24T02:43:33.357Z,74.27
2023-05-24T02:44:57.502Z,74.16
2023-05-24T02:46:20.308Z,74.78
2023-05-24T02:47:42.292Z,74.13
2023-05-24T02:49:05.901Z,74.25
2023-05-24T02:50:28.703Z,74.82
2023-05-24T02:51:51.585Z,74.85
2023-05-24T02:53:14.398Z,74.93
2023-05-24T02:54:37.802Z,74.74
2023-05-24T02:56:01.030Z,75.31
2023-05-24T02:57:23.840Z,75.10
2023-05-24T02:58:46.121Z,75.10
2023-05-24T03:00:12.082Z,74.60
2023-05-24T03:01:34.391Z,74.80
2023-05-24T03:03:02.504Z,74.73
2023-05-24T03:04:25.023Z,74.71
2023-05-24T03:05:47.933Z,74.38
2023-05-24T03:07:10.764Z,74.55
2023-05-24T03:08:33.659Z,74.91
2023-05-24T03:09:55.584Z,74.91
2023-05-24T03:11:22.115Z,75.46
2023-05-24T03:12:45.280Z,74.89
2023-05-24T03:14:10.097Z,75.37
2023-05-24T03:15:34.265Z,75.40
2023-05-24T03:16:57.171Z,74.90
2023-05-24T03:18:19.023Z,75.67
2023-05-24T03:19:42.023Z,74.84
2023-05-24T03:21:05.147Z,74.86
2023-05-24T03:22:27.087Z,75.08
2023-05-24T03:23:50.513Z,75.23
2023-05-24T03:25:13.547Z,75.14
2023-05-24T03:26:35.792Z,74.90
2023-05-24T03:27:58.799Z,75.22
2023-05-24T03:29:21.635Z,75.51
2023-05-24T03:30:44.979Z,75.50
2023-05-24T03:32:07.930Z,75.53
2023-05-24T03:33:29.782Z,75.42
2023-05-24T03:34:52.932Z,75.44
2023-05-24T03:36:15.877Z,75.29
2023-05-24T03:37:38.885Z,75.67
2023-05-24T03:39:03.912Z,74.97
2023-05-24T03:40:28.678Z,74.24
2023-05-24T03:41:50.687Z,74.33
2023-05-24T03:43:13.584Z,74.69
2023-05-24T03:44:36.513Z,74.77
2023-05-24T03:46:00.759Z,75.17
2023-05-24T03:47:22.713Z,74.83
2023-05-24T03:48:45.576Z,74.90
2023-05-24T03:50:08.061Z,74.55
2023-05-24T03:51:30.879Z,74.83
2023-05-24T03:52:53.204Z,74.87
2023-05-24T03:54:17.012Z,74.76
2023-05-24T03:55:39.050Z,75.24
2023-05-24T03:57:02.621Z,73.71
2023-05-24T03:58:25.568Z,73.52
2023-05-24T03:59:48.392Z,74.63
2023-05-24T04:01:22.020Z,75.18
2023-05-24T04:02:53.237Z,74.31
2023-05-24T04:04:15.297Z,74.08
2023-05-24T04:05:38.208Z,73.07
2023-05-24T04:07:00.122Z,73.91
2023-05-24T04:08:23.057Z,73.50
2023-05-24T04:09:45.029Z,73.46
2023-05-24T04:11:07.890Z,72.76
2023-05-24T04:12:31.288Z,72.37
2023-05-24T04:13:53.201Z,72.60
2023-05-24T04:15:16.066Z,72.44
2023-05-24T04:16:39.668Z,72.61
2023-05-24T04:18:03.466Z,72.29
2023-05-24T04:19:26.544Z,73.01
2023-05-24T04:20:49.550Z,73.93
2023-05-24T04:22:12.407Z,73.85
2023-05-24T04:23:35.301Z,73.68
2023-05-24T04:24:58.214Z,73.71
2023-05-24T04:26:21.258Z,73.35
2023-05-24T04:27:44.820Z,74.27
2023-05-24T04:29:07.916Z,73.99
2023-05-24T04:30:30.281Z,74.25
2023-05-24T04:31:54.561Z,73.94
2023-05-24T04:33:17.581Z,74.96
2023-05-24T04:34:42.602Z,74.14
2023-05-24T04:36:05.859Z,73.76
2023-05-24T04:37:29.404Z,73.71
2023-05-24T04:38:53.731Z,73.61
2023-05-24T04:40:16.368Z,74.47
2023-05-24T04:41:39.178Z,74.21
2023-05-24T04:43:02.068Z,74.32
2023-05-24T04:44:24.238Z,74.77
2023-05-24T04:45:47.553Z,74.83
2023-05-24T04:47:10.866Z,74.08
2023-05-24T04:48:33.772Z,74.12
2023-05-24T04:49:55.634Z,74.53
2023-05-24T04:51:18.611Z,74.55
2023-05-24T04:52:41.483Z,75.07
2023-05-24T04:54:08.667Z,74.96
2023-05-24T04:55:32.677Z,75.81
2023-05-24T04:56:54.602Z,74.49
2023-05-24T04:58:18.108Z,71.75
2023-05-24T04:59:41.038Z,73.61
2023-05-24T05:01:03.903Z,72.58
2023-05-24T05:02:28.329Z,72.30
2023-05-24T05:03:50.267Z,71.17
2023-05-24T05:05:13.301Z,70.21
2023-05-24T05:06:38.600Z,70.89
2023-05-24T05:08:01.842Z,70.77
2023-05-24T05:09:28.197Z,69.84
2023-05-24T05:10:51.064Z,69.20
2023-05-24T05:12:14.230Z,68.53
2023-05-24T05:13:36.145Z,68.98
2023-05-24T05:14:59.024Z,69.30
2023-05-24T05:16:21.917Z,69.48
2023-05-24T05:17:46.430Z,70.50
2023-05-24T05:19:08.425Z,69.70
2023-05-24T05:20:31.312Z,69.56
2023-05-24T05:21:54.145Z,69.18
2023-05-24T05:23:17.103Z,70.16
2023-05-24T05:24:40.148Z,69.24
2023-05-24T05:26:03.079Z,70.64
2023-05-24T05:27:26.121Z,69.77
2023-05-24T05:28:47.982Z,68.62
2023-05-24T05:30:11.774Z,68.44
2023-05-24T05:31:34.698Z,68.32
2023-05-24T05:32:59.137Z,68.70
2023-05-24T05:34:22.200Z,70.09
2023-05-24T05:35:45.127Z,68.98
2023-05-24T05:37:08.602Z,69.13
2023-05-24T05:38:31.441Z,68.71
2023-05-24T05:39:54.239Z,70.06
2023-05-24T05:41:17.137Z,69.21
2023-05-24T05:42:40.005Z,68.47
2023-05-24T05:44:01.915Z,68.80
2023-05-24T05:45:25.523Z,69.07
2023-05-24T05:46:48.364Z,69.25
2023-05-24T05:48:12.659Z,67.52
2023-05-24T05:49:36.354Z,67.40
2023-05-24T05:50:59.203Z,67.08
2023-05-24T05:52:22.042Z,67.28
2023-05-24T05:53:44.881Z,66.94
2023-05-24T05:55:09.367Z,66.63
2023-05-24T05:56:32.301Z,66.80
2023-05-24T05:57:55.339Z,66.50
2023-05-24T05:59:18.230Z,66.99
2023-05-24T06:00:41.720Z,66.65
2023-05-24T06:02:05.805Z,65.52
2023-05-24T06:03:30.295Z,65.29
2023-05-24T06:04:53.598Z,64.96
2023-05-24T06:06:19.348Z,65.88
2023-05-24T06:07:42.224Z,66.84
2023-05-24T06:09:05.702Z,66.91
2023-05-24T06:10:28.902Z,66.21
2023-05-24T06:11:51.776Z,67.03
2023-05-24T06:13:14.836Z,65.71
2023-05-24T06:14:38.447Z,66.01
2023-05-24T06:16:01.471Z,65.65
2023-05-24T06:17:25.282Z,65.19
2023-05-24T06:19:01.527Z,66.16
2023-05-24T06:20:28.612Z,66.41
2023-05-24T06:21:51.752Z,66.31
2023-05-24T06:23:13.634Z,65.10
2023-05-24T06:24:36.775Z,64.05
2023-05-24T06:26:01.567Z,63.83
2023-05-24T06:27:24.509Z,63.45
2023-05-24T06:28:47.385Z,65.01
2023-05-24T06:30:11.053Z,64.74
2023-05-24T06:31:34.810Z,64.74
2023-05-24T06:32:58.235Z,64.39
2023-05-24T06:34:23.271Z,63.99
2023-05-24T06:35:46.141Z,65.80
2023-05-24T06:37:15.244Z,65.15
2023-05-24T06:38:39.073Z,64.50
2023-05-24T06:40:01.965Z,64.57
2023-05-24T06:41:24.829Z,64.57
2023-05-24T06:42:48.110Z,63.73
2023-05-24T06:44:11.069Z,62.06
2023-05-24T06:45:33.942Z,61.97
2023-05-24T06:46:56.819Z,62.80
2023-05-24T06:48:19.892Z,63.14
2023-05-24T06:49:44.237Z,62.27
2023-05-24T06:51:07.250Z,62.38
2023-05-24T06:52:30.093Z,64.08
2023-05-24T06:53:53.019Z,63.09
2023-05-24T06:55:15.898Z,61.96
2023-05-24T06:56:38.707Z,60.90
2023-05-24T06:58:01.663Z,62.03
2023-05-24T06:59:24.488Z,61.26
2023-05-24T07:00:46.762Z,61.47
2023-05-24T07:02:09.734Z,61.64
2023-05-24T07:03:32.926Z,61.39
2023-05-24T07:04:57.219Z,61.32
2023-05-24T07:06:20.239Z,60.32
2023-05-24T07:07:44.289Z,60.02
2023-05-24T07:09:07.531Z,60.16
2023-05-24T07:10:30.819Z,60.05
2023-05-24T07:11:52.883Z,59.90
2023-05-24T07:13:15.786Z,60.57
2023-05-24T07:14:38.626Z,60.02
2023-05-24T07:16:01.520Z,60.62
2023-05-24T07:17:23.701Z,58.91
2023-05-24T07:18:46.567Z,58.88
2023-05-24T07:20:13.785Z,59.79
2023-05-24T07:21:37.591Z,59.42
2023-05-24T07:23:01.197Z,59.62
2023-05-24T07:24:24.210Z,62.04
2023-05-24T07:25:47.076Z,59.40
2023-05-24T07:27:09.961Z,60.21
2023-05-24T07:28:33.023Z,59.56
2023-05-24T07:29:56.147Z,60.15
2023-05-24T07:31:18.983Z,60.96
2023-05-24T07:32:42.161Z,61.05
2023-05-24T07:34:05.219Z,59.58
2023-05-24T07:35:30.045Z,59.99
2023-05-24T07:36:52.887Z,59.72
2023-05-24T07:38:16.053Z,61.88
2023-05-24T07:39:39.097Z,61.02
2023-05-24T07:41:04.529Z,62.14
2023-05-24T07:42:27.367Z,59.97
2023-05-24T07:43:50.809Z,60.73
2023-05-24T07:45:14.156Z,63.83
2023-05-24T07:46:37.026Z,61.08
2023-05-24T07:47:59.952Z,62.17
2023-05-24T07:49:23.078Z,60.65
2023-05-24T07:50:48.676Z,59.51
2023-05-24T07:52:11.864Z,58.63
2023-05-24T07:53:35.531Z,59.56
2023-05-24T07:54:58.314Z,62.97
2023-05-24T07:56:21.183Z,61.42
2023-05-24T07:57:43.989Z,59.53
2023-05-24T07:59:06.874Z,60.65
2023-05-24T08:00:29.986Z,59.93
2023-05-24T08:01:52.982Z,59.93
2023-05-24T08:03:17.428Z,62.02
2023-05-24T08:04:40.450Z,60.98
2023-05-24T08:06:04.884Z,60.86
2023-05-24T08:07:28.851Z,60.25
2023-05-24T08:08:52.128Z,59.19
2023-05-24T08:10:14.982Z,59.05
2023-05-24T08:11:37.866Z,58.85
2023-05-24T08:13:01.373Z,59.45
2023-05-24T08:14:24.567Z,62.28
2023-05-24T08:15:47.569Z,59.90
2023-05-24T08:17:10.625Z,59.08
2023-05-24T08:18:33.444Z,58.96
2023-05-24T08:19:56.177Z,58.58
2023-05-24T08:21:20.543Z,60.23
2023-05-24T08:22:44.062Z,59.69
2023-05-24T08:24:09.278Z,56.01
2023-05-24T08:25:35.265Z,57.20
2023-05-24T08:26:58.192Z,58.43
2023-05-24T08:28:21.150Z,60.10
2023-05-24T08:29:44.078Z,58.81
2023-05-24T08:31:07.385Z,58.29
2023-05-24T08:32:29.849Z,56.56
2023-05-24T08:33:53.001Z,58.16
2023-05-24T08:36:43.840Z,59.95
2023-05-24T08:38:07.974Z,57.94
2023-05-24T08:39:31.091Z,58.43
2023-05-24T08:40:53.983Z,58.69
2023-05-24T08:42:17.420Z,58.64
2023-05-24T08:43:40.491Z,56.88
2023-05-24T08:45:09.361Z,57.21
2023-05-24T08:46:32.592Z,56.70
2023-05-24T08:47:57.009Z,56.26
2023-05-24T08:49:21.489Z,57.20
2023-05-24T08:50:45.028Z,57.07
2023-05-24T08:52:11.394Z,57.34
2023-05-24T08:53:37.555Z,57.59
2023-05-24T08:55:00.838Z,56.26
2023-05-24T08:56:24.142Z,56.85
2023-05-24T08:57:47.668Z,56.71
2023-05-24T08:59:13.521Z,56.44
2023-05-24T09:00:36.469Z,55.80
2023-05-24T09:02:00.846Z,56.28
2023-05-24T09:03:24.843Z,56.55
2023-05-24T09:04:50.717Z,56.09
2023-05-24T09:06:17.799Z,56.78
2023-05-24T09:07:43.992Z,58.38
2023-05-24T09:09:09.289Z,57.52
2023-05-24T09:10:49.222Z,55.06
2023-05-24T09:12:35.753Z,55.21
2023-05-24T09:14:01.386Z,54.13
2023-05-24T09:15:24.539Z,54.48
2023-05-24T09:16:47.591Z,54.83
2023-05-24T09:18:11.317Z,56.40
2023-05-24T09:19:34.211Z,57.17
2023-05-24T09:20:57.145Z,57.38
2023-05-24T09:22:23.469Z,57.35
2023-05-24T09:23:48.537Z,58.13
2023-05-24T09:25:13.913Z,58.18
2023-05-24T09:26:37.455Z,57.19
2023-05-24T09:28:07.469Z,57.08
2023-05-24T09:29:30.272Z,56.39
2023-05-24T09:31:02.379Z,58.71
2023-05-24T09:32:28.539Z,58.82
2023-05-24T09:33:52.031Z,57.45
2023-05-24T09:35:14.570Z,57.59
2023-05-24T09:36:43.187Z,56.63
2023-05-24T09:38:06.840Z,54.71
2023-05-24T09:39:32.336Z,55.21
2023-05-24T09:41:04.350Z,54.26
2023-05-24T09:42:30.512Z,54.97
2023-05-24T09:43:54.005Z,55.44
2023-05-24T09:45:18.490Z,53.86
2023-05-24T09:46:41.989Z,53.99
2023-05-24T09:48:11.756Z,53.34
2023-05-24T09:49:39.041Z,53.85
2023-05-24T09:51:07.687Z,55.59
2023-05-24T09:52:33.252Z,55.81
2023-05-24T09:53:59.850Z,54.54
2023-05-24T09:55:25.570Z,55.52
2023-05-24T09:56:49.939Z,55.00
2023-05-24T09:58:16.015Z,54.09
2023-05-24T09:59:42.017Z,52.63
2023-05-24T10:01:07.502Z,53.26
2023-05-24T10:02:41.557Z,54.26
2023-05-24T10:04:15.734Z,54.63
2023-05-24T10:05:40.298Z,55.37
2023-05-24T10:07:04.174Z,55.00
2023-05-24T10:08:28.169Z,54.62
2023-05-24T10:09:52.165Z,55.42
2023-05-24T10:11:18.034Z,55.05
2023-05-24T10:12:44.264Z,55.64
2023-05-24T10:14:08.531Z,55.50
2023-05-24T10:15:31.114Z,55.35
2023-05-24T10:16:54.641Z,54.97
2023-05-24T10:18:20.612Z,55.00
2023-05-24T10:19:44.323Z,53.64
2023-05-24T10:21:12.121Z,53.97
2023-05-24T10:22:42.042Z,54.53
2023-05-24T10:24:11.013Z,55.01
2023-05-24T10:25:36.383Z,54.57
2023-05-24T10:27:04.572Z,53.84
2023-05-24T10:28:29.122Z,54.20
2023-05-24T10:30:02.569Z,52.42
2023-05-24T10:31:29.748Z,53.54
2023-05-24T10:32:55.168Z,52.29
2023-05-24T10:34:19.158Z,51.66
2023-05-24T10:35:43.423Z,50.66
2023-05-24T10:37:08.506Z,51.68
2023-05-24T10:38:32.162Z,52.25
2023-05-24T10:39:56.377Z,53.98
2023-05-24T10:41:19.430Z,55.11
2023-05-24T10:42:44.687Z,55.39
2023-05-24T10:44:13.132Z,54.79
2023-05-24T10:45:39.289Z,55.57
2023-05-24T10:47:13.468Z,54.88
2023-05-24T10:48:38.760Z,54.70
2023-05-24T10:50:18.801Z,54.44
2023-05-24T10:51:42.328Z,56.00
2023-05-24T10:53:16.529Z,55.48
2023-05-24T10:54:46.931Z,56.58
2023-05-24T10:56:21.120Z,55.33
2023-05-24T10:57:51.266Z,56.82
2023-05-24T10:59:38.020Z,55.91
2023-05-24T11:01:02.068Z,56.30
2023-05-24T11:02:30.214Z,55.82
2023-05-24T11:03:54.061Z,53.88
2023-05-24T11:05:18.498Z,53.73
2023-05-24T11:06:48.804Z,54.75
2023-05-24T11:08:16.789Z,53.39
2023-05-24T11:09:46.782Z,54.22
2023-05-24T11:12:39.735Z,53.76
2023-05-24T11:14:04.729Z,50.81
2023-05-24T11:15:28.690Z,49.64
2023-05-24T11:16:52.675Z,50.33
2023-05-24T11:18:17.571Z,50.26
2023-05-24T11:19:48.225Z,47.22
2023-05-24T11:21:12.178Z,46.30
2023-05-24T11:22:36.169Z,45.51
2023-05-24T11:23:58.816Z,45.43
2023-05-24T11:25:22.699Z,42.66
2023-05-24T11:26:46.493Z,42.31
2023-05-24T11:28:11.308Z,45.84
2023-05-24T11:29:42.197Z,46.69
2023-05-24T11:31:10.131Z,47.47
2023-05-24T11:32:33.905Z,46.30
2023-05-24T11:33:57.588Z,47.54
2023-05-24T11:35:23.304Z,48.28
2023-05-24T11:36:47.487Z,49.00
2023-05-24T11:38:14.506Z,49.46
2023-05-24T11:39:39.384Z,50.96
2023-05-24T11:41:02.978Z,50.86
2023-05-24T11:42:27.762Z,50.14
2023-05-24T11:43:50.515Z,50.58
2023-05-24T11:45:16.278Z,51.85
2023-05-24T11:46:39.814Z,51.41
2023-05-24T11:48:06.583Z,51.34
2023-05-24T11:49:31.989Z,50.85
2023-05-24T11:50:55.697Z,49.21
2023-05-24T11:52:19.375Z,48.43
2023-05-24T11:53:43.005Z,49.44
2023-05-24T11:55:08.048Z,50.34
2023-05-24T11:56:34.240Z,51.22
2023-05-24T11:58:00.547Z,51.70
2023-05-24T11:59:28.240Z,52.42
2023-05-24T12:00:54.111Z,53.94
2023-05-24T12:02:18.163Z,54.42
2023-05-24T12:03:41.727Z,54.76
2023-05-24T12:05:14.221Z,55.06
2023-05-24T12:06:39.252Z,55.14
2023-05-24T12:08:07.669Z,54.78
2023-05-24T12:09:32.241Z,54.69
2023-05-24T12:10:56.186Z,53.97
2023-05-24T12:12:24.329Z,54.27
2023-05-24T12:13:50.789Z,53.60
2023-05-24T12:15:15.045Z,53.69
2023-05-24T12:16:40.656Z,54.04
2023-05-24T12:18:04.515Z,54.72
2023-05-24T12:19:35.070Z,55.63
2023-05-24T12:20:59.096Z,54.97
2023-05-24T12:22:31.074Z,55.18
2023-05-24T12:23:54.683Z,54.06
2023-05-24T12:25:20.587Z,54.11
2023-05-24T12:26:45.452Z,54.15
2023-05-24T12:28:08.906Z,53.39
2023-05-24T12:29:36.829Z,53.26
2023-05-24T12:31:00.632Z,53.89
2023-05-24T12:32:25.549Z,54.07
2023-05-24T12:33:52.152Z,53.38
2023-05-24T12:35:19.562Z,52.44
2023-05-24T12:36:44.404Z,52.35
2023-05-24T12:38:10.832Z,52.46
2023-05-24T12:39:38.558Z,50.47
2023-05-24T12:42:28.767Z,54.15
2023-05-24T12:43:53.998Z,51.43
2023-05-24T12:45:22.938Z,51.15
2023-05-24T12:46:46.600Z,49.87
2023-05-24T12:48:12.078Z,49.53
2023-05-24T12:49:35.469Z,49.10
2023-05-24T12:50:58.304Z,53.53
2023-05-24T12:52:21.172Z,53.26
2023-05-24T12:53:44.026Z,52.78
2023-05-24T12:55:08.340Z,53.63
2023-05-24T12:56:31.301Z,51.87
2023-05-24T12:57:54.907Z,50.35
2023-05-24T12:59:17.955Z,50.81
2023-05-24T13:00:41.850Z,50.92
2023-05-24T13:02:04.979Z,49.50
2023-05-24T13:03:29.191Z,49.35
2023-05-24T13:04:52.303Z,49.53
2023-05-24T13:06:15.206Z,49.95
2023-05-24T13:07:38.996Z,50.82
2023-05-24T13:09:02.030Z,52.07
2023-05-24T13:10:25.728Z,51.30
2023-05-24T13:11:48.757Z,51.39
2023-05-24T13:13:12.276Z,50.84
2023-05-24T13:14:35.338Z,49.13
2023-05-24T13:15:58.152Z,48.48
2023-05-24T13:17:21.152Z,51.76
2023-05-24T13:18:46.332Z,52.80
2023-05-24T13:20:11.360Z,53.20
2023-05-24T13:21:34.321Z,51.80
2023-05-24T13:22:57.155Z,51.46
2023-05-24T13:24:20.288Z,50.24
2023-05-24T13:25:43.279Z,50.48
2023-05-24T13:27:06.502Z,49.37
2023-05-24T13:28:31.172Z,50.57
2023-05-24T13:31:22.375Z,49.17
2023-05-24T13:32:45.300Z,49.53
2023-05-24T13:34:10.722Z,49.20
2023-05-24T13:35:33.702Z,49.16
2023-05-24T13:36:57.498Z,49.65
2023-05-24T13:38:20.970Z,49.37
2023-05-24T13:39:44.558Z,49.83
2023-05-24T13:41:08.026Z,49.08
2023-05-24T13:42:31.041Z,48.55
2023-05-24T13:43:54.427Z,47.97
2023-05-24T13:45:17.380Z,48.21
2023-05-24T13:46:41.214Z,49.02
2023-05-24T13:48:04.547Z,50.25
2023-05-24T13:49:29.164Z,49.90
2023-05-24T13:50:52.178Z,50.07
2023-05-24T13:52:14.995Z,49.42
2023-05-24T13:53:37.822Z,48.21
2023-05-24T13:55:01.479Z,47.81
2023-05-24T13:56:24.966Z,49.61
2023-05-24T13:57:51.778Z,51.12
2023-05-24T13:59:14.851Z,52.12
2023-05-24T14:00:37.678Z,51.96
2023-05-24T14:02:00.797Z,51.10
2023-05-24T14:03:24.349Z,52.46
2023-05-24T14:04:48.549Z,51.69
2023-05-24T14:06:11.474Z,50.90
2023-05-24T14:07:35.305Z,49.51
2023-05-24T14:08:59.290Z,48.94
2023-05-24T14:10:22.451Z,49.68
2023-05-24T14:11:45.445Z,48.83
2023-05-24T14:13:20.681Z,49.52
2023-05-24T14:16:16.926Z,49.64
2023-05-24T14:17:39.861Z,49.65
2023-05-24T14:19:02.789Z,49.61
2023-05-24T14:20:27.149Z,50.40
2023-05-24T14:21:49.979Z,51.11
2023-05-24T14:23:12.941Z,50.48
2023-05-24T14:24:35.801Z,51.10
2023-05-24T14:25:58.753Z,50.70
2023-05-24T14:27:21.663Z,50.97
2023-05-24T14:28:44.477Z,51.68
2023-05-24T14:30:08.674Z,51.56
2023-05-24T14:31:31.511Z,51.38
2023-05-24T14:32:54.517Z,51.07
2023-05-24T14:34:17.439Z,50.75
2023-05-24T14:35:42.143Z,50.52
2023-05-24T14:37:06.405Z,50.93
2023-05-24T14:38:29.330Z,50.53
2023-05-24T14:39:52.194Z,50.32
2023-05-24T14:41:16.303Z,50.13
2023-05-24T14:42:39.232Z,51.08
2023-05-24T14:44:02.318Z,50.81
2023-05-24T14:45:25.308Z,50.69
2023-05-24T14:46:48.266Z,50.56
2023-05-24T14:48:12.430Z,49.56
2023-05-24T14:49:35.502Z,49.71
2023-05-24T14:50:59.716Z,49.38
2023-05-24T14:52:22.553Z,50.36
2023-05-24T14:53:45.165Z,50.97
2023-05-24T14:55:08.724Z,52.13
2023-05-24T14:56:31.815Z,53.81
2023-05-24T14:57:53.841Z,54.41
2023-05-24T14:59:17.007Z,54.62
2023-05-24T15:00:40.865Z,53.73
2023-05-24T15:02:03.763Z,54.33
2023-05-24T15:03:26.812Z,55.40
2023-05-24T15:04:50.038Z,55.45
2023-05-24T15:06:14.413Z,54.62
2023-05-24T15:07:37.265Z,55.26
2023-05-24T15:09:00.657Z,54.58
2023-05-24T15:10:23.486Z,54.40
2023-05-24T15:11:46.397Z,54.08
2023-05-24T15:13:09.253Z,53.98
2023-05-24T15:14:32.409Z,53.07
2023-05-24T15:15:56.743Z,53.96
2023-05-24T15:17:21.612Z,54.08
2023-05-24T15:18:45.027Z,53.89
2023-05-24T15:20:08.825Z,52.97
2023-05-24T15:21:33.006Z,54.05
2023-05-24T15:22:55.864Z,55.34
2023-05-24T15:24:18.691Z,53.62
2023-05-24T15:25:42.871Z,53.70
2023-05-24T15:27:05.886Z,53.86
2023-05-24T15:28:28.748Z,53.55
2023-05-24T15:29:54.549Z,53.58
2023-05-24T15:31:17.420Z,54.08
2023-05-24T15:32:40.281Z,53.60
2023-05-24T15:34:04.891Z,53.44
2023-05-24T15:35:26.810Z,53.41
2023-05-24T15:36:51.091Z,53.35
2023-05-24T15:38:14.149Z,52.76
2023-05-24T15:39:36.902Z,52.16
2023-05-24T15:40:59.726Z,52.68
2023-05-24T15:42:24.582Z,51.75
2023-05-24T15:43:46.682Z,51.69
2023-05-24T15:45:11.052Z,51.54
2023-05-24T15:46:34.053Z,51.52
2023-05-24T15:47:57.163Z,52.09
2023-05-24T15:49:20.043Z,52.23
2023-05-24T15:52:10.780Z,52.53
2023-05-24T15:53:33.864Z,53.27
2023-05-24T15:54:56.707Z,52.19
2023-05-24T15:56:19.731Z,52.03
2023-05-24T15:57:42.656Z,52.54
2023-05-24T15:59:05.496Z,52.76
2023-05-24T16:00:28.550Z,51.22
2023-05-24T16:01:50.571Z,51.30
2023-05-24T16:03:16.055Z,52.27
2023-05-24T16:04:39.708Z,51.19
2023-05-24T16:06:02.553Z,51.40
2023-05-24T16:07:26.733Z,51.16
2023-05-24T16:08:50.259Z,51.00
2023-05-24T16:10:13.314Z,51.70
2023-05-24T16:11:36.608Z,51.63
2023-05-24T16:12:59.765Z,51.64
2023-05-24T16:14:22.801Z,51.24
2023-05-24T16:15:51.321Z,51.37
2023-05-24T16:17:15.003Z,51.69
2023-05-24T16:18:38.029Z,50.71
2023-05-24T16:20:01.428Z,50.08
2023-05-24T16:21:24.480Z,50.33
2023-05-24T16:22:49.841Z,49.91
2023-05-24T16:24:12.709Z,50.49
2023-05-24T16:25:34.607Z,51.28
2023-05-24T16:26:57.946Z,51.64
2023-05-24T16:28:23.799Z,51.31
2023-05-24T16:29:46.966Z,49.89
2023-05-24T16:31:09.970Z,50.39
2023-05-24T16:32:32.800Z,50.49
2023-05-24T16:33:55.681Z,50.56
2023-05-24T16:35:18.559Z,50.36
2023-05-24T16:36:40.904Z,50.29
2023-05-24T16:38:05.274Z,50.29
2023-05-24T16:39:28.168Z,50.16
2023-05-24T16:40:51.097Z,50.63
2023-05-24T16:42:13.869Z,50.24
2023-05-24T16:43:36.742Z,50.15
2023-05-24T16:44:59.567Z,50.99
2023-05-24T16:46:23.940Z,51.54
2023-05-24T16:47:47.034Z,51.93
2023-05-24T16:49:09.945Z,51.29
2023-05-24T16:50:33.700Z,52.05
2023-05-24T16:51:56.490Z,51.76
2023-05-24T16:53:22.963Z,51.83
2023-05-24T16:54:45.957Z,52.31
2023-05-24T16:56:08.801Z,52.84
2023-05-24T16:57:31.603Z,52.21
2023-05-24T16:58:54.485Z,52.33
2023-05-24T17:00:18.180Z,51.86
2023-05-24T17:01:40.962Z,52.63
2023-05-24T17:03:04.580Z,52.77
2023-05-24T17:04:27.594Z,53.28
2023-05-24T17:05:50.270Z,53.61
2023-05-24T17:07:13.087Z,53.02
2023-05-24T17:08:37.543Z,52.70
2023-05-24T17:10:00.637Z,53.20
2023-05-24T17:11:23.827Z,53.47
2023-05-24T17:12:47.464Z,53.47
2023-05-24T17:14:10.271Z,53.96
2023-05-24T17:15:33.055Z,54.40
2023-05-24T17:16:55.885Z,54.01
2023-05-24T17:18:19.080Z,54.68
2023-05-24T17:19:42.091Z,54.19
2023-05-24T17:21:05.843Z,54.63
2023-05-24T17:22:28.648Z,54.84
2023-05-24T17:23:52.787Z,54.94
2023-05-24T17:25:15.771Z,54.42
2023-05-24T17:26:39.013Z,54.74
2023-05-24T17:28:01.877Z,55.20
2023-05-24T17:29:26.394Z,54.81
2023-05-24T17:30:49.182Z,54.35
2023-05-24T17:32:12.051Z,54.79
2023-05-24T17:33:34.956Z,55.19
2023-05-24T17:34:57.878Z,54.54
2023-05-24T17:36:20.771Z,54.61
2023-05-24T17:37:43.611Z,54.90
2023-05-24T17:39:07.921Z,54.14
2023-05-24T17:40:30.792Z,54.41
2023-05-24T17:41:53.611Z,54.57
2023-05-24T17:43:16.435Z,54.55
2023-05-24T17:44:39.234Z,55.08
2023-05-24T17:46:06.327Z,54.67
2023-05-24T17:47:29.959Z,54.86
2023-05-24T17:48:52.886Z,55.33
2023-05-24T17:50:14.876Z,55.82
2023-05-24T17:51:38.986Z,56.08
2023-05-24T17:53:01.801Z,55.87
2023-05-24T17:54:28.687Z,56.17
2023-05-24T17:55:51.759Z,56.06
2023-05-24T17:57:14.612Z,56.36
2023-05-24T17:58:37.846Z,57.36
2023-05-24T18:00:00.854Z,57.39
2023-05-24T18:01:23.897Z,57.15
2023-05-24T18:02:46.947Z,57.82
2023-05-24T18:04:10.710Z,58.20
2023-05-24T18:05:33.542Z,58.49
2023-05-24T18:06:56.590Z,58.71
2023-05-24T18:08:19.425Z,58.63
2023-05-24T18:09:43.592Z,58.86
2023-05-24T18:11:09.430Z,58.85
2023-05-24T18:12:32.542Z,59.60
2023-05-24T18:13:55.497Z,60.33